< < Back
Terminal Aerodrome Forecast


Current Version              Previous Versions:   1  2  3  4  5  6  7  8  9  

Terminal Aerodrome Forecast

533
FTUS42 KCAE 281531 AAB
TAFAGS
TAF AMD
KAGS 281531Z 2816/2912 05006KT P6SM BKN020
     FM281700 08008KT P6SM BKN035
     FM290200 09003KT P6SM SCT250=



Latest METAR

893
SAUS70 KWBC 282200 RRJ
MTRAGS
METAR KAGS 282153Z 13003KT 10SM FEW050 29/20 A3007 RMK AO2 SLP181
T02890200


USA.gov is the U.S. government's official web portal to all federal, state and local government web resources and services.